sensor_id;sensor_type;location;lat;lon;timestamp;temperature;humidity
72202;SHT30;60105;54.956;73.412;2023-03-24T00:01:48;-3.27;80.01
72202;SHT30;60105;54.956;73.412;2023-03-24T00:04:50;-3.31;80.14
72202;SHT30;60105;54.956;73.412;2023-03-24T00:07:54;-3.37;80.49
72202;SHT30;60105;54.956;73.412;2023-03-24T00:11:14;-3.38;80.77
72202;SHT30;60105;54.956;73.412;2023-03-24T00:14:18;-3.41;80.51
72202;SHT30;60105;54.956;73.412;2023-03-24T00:17:19;-3.42;80.55
72202;SHT30;60105;54.956;73.412;2023-03-24T00:20:25;-3.48;80.64
72202;SHT30;60105;54.956;73.412;2023-03-24T00:23:28;-3.50;80.67
72202;SHT30;60105;54.956;73.412;2023-03-24T00:26:47;-3.51;80.48
72202;SHT30;60105;54.956;73.412;2023-03-24T00:29:51;-3.55;80.50
72202;SHT30;60105;54.956;73.412;2023-03-24T00:32:53;-3.63;80.79
72202;SHT30;60105;54.956;73.412;2023-03-24T00:35:54;-3.66;81.04
72202;SHT30;60105;54.956;73.412;2023-03-24T00:38:57;-3.69;81.00
72202;SHT30;60105;54.956;73.412;2023-03-24T00:41:59;-3.63;80.65
72202;SHT30;60105;54.956;73.412;2023-03-24T00:45:07;-3.65;80.28
72202;SHT30;60105;54.956;73.412;2023-03-24T00:48:09;-3.71;80.53
72202;SHT30;60105;54.956;73.412;2023-03-24T00:51:48;-3.75;80.11
72202;SHT30;60105;54.956;73.412;2023-03-24T00:54:52;-3.79;80.58
72202;SHT30;60105;54.956;73.412;2023-03-24T00:57:58;-3.86;80.08
72202;SHT30;60105;54.956;73.412;2023-03-24T01:01:01;-3.93;80.85
72202;SHT30;60105;54.956;73.412;2023-03-24T01:04:03;-3.97;80.67
72202;SHT30;60105;54.956;73.412;2023-03-24T01:07:08;-3.90;81.01
72202;SHT30;60105;54.956;73.412;2023-03-24T01:10:13;-3.93;80.33
72202;SHT30;60105;54.956;73.412;2023-03-24T01:13:22;-3.89;80.10
72202;SHT30;60105;54.956;73.412;2023-03-24T01:16:23;-3.97;80.39
72202;SHT30;60105;54.956;73.412;2023-03-24T01:19:25;-3.97;80.21
72202;SHT30;60105;54.956;73.412;2023-03-24T01:22:28;-3.97;79.96
72202;SHT30;60105;54.956;73.412;2023-03-24T01:25:30;-3.97;80.08
72202;SHT30;60105;54.956;73.412;2023-03-24T01:28:32;-3.93;79.82
72202;SHT30;60105;54.956;73.412;2023-03-24T01:31:47;-3.87;79.45
72202;SHT30;60105;54.956;73.412;2023-03-24T01:34:49;-3.86;79.13
72202;SHT30;60105;54.956;73.412;2023-03-24T01:37:51;-3.92;79.09
72202;SHT30;60105;54.956;73.412;2023-03-24T01:40:52;-3.96;79.01
72202;SHT30;60105;54.956;73.412;2023-03-24T01:43:55;-3.99;79.06
72202;SHT30;60105;54.956;73.412;2023-03-24T01:46:57;-3.96;78.94
72202;SHT30;60105;54.956;73.412;2023-03-24T01:50:00;-3.93;78.79
72202;SHT30;60105;54.956;73.412;2023-03-24T01:53:05;-3.89;78.51
72202;SHT30;60105;54.956;73.412;2023-03-24T02:00:19;-3.86;78.14
72202;SHT30;60105;54.956;73.412;2023-03-24T02:03:48;-3.86;78.00
72202;SHT30;60105;54.956;73.412;2023-03-24T02:06:49;-3.86;77.90
72202;SHT30;60105;54.956;73.412;2023-03-24T02:09:51;-3.85;77.57
72202;SHT30;60105;54.956;73.412;2023-03-24T02:13:03;-3.76;77.40
72202;SHT30;60105;54.956;73.412;2023-03-24T02:20:28;-3.65;76.25
72202;SHT30;60105;54.956;73.412;2023-03-24T02:55:28;-3.37;74.86
72202;SHT30;60105;54.956;73.412;2023-03-24T02:58:46;-3.25;74.37
72202;SHT30;60105;54.956;73.412;2023-03-24T03:02:01;-3.18;74.31
72202;SHT30;60105;54.956;73.412;2023-03-24T03:08:30;-2.92;73.18
72202;SHT30;60105;54.956;73.412;2023-03-24T03:11:48;-2.84;73.37
72202;SHT30;60105;54.956;73.412;2023-03-24T03:15:00;-2.65;73.16
72202;SHT30;60105;54.956;73.412;2023-03-24T03:21:48;-2.34;71.71
72202;SHT30;60105;54.956;73.412;2023-03-24T03:24:54;-2.13;71.00
72202;SHT30;60105;54.956;73.412;2023-03-24T03:27:59;-2.00;70.49
72202;SHT30;60105;54.956;73.412;2023-03-24T03:31:07;-1.80;70.09
72202;SHT30;60105;54.956;73.412;2023-03-24T03:34:26;-1.67;69.47
72202;SHT30;60105;54.956;73.412;2023-03-24T03:40:52;-1.45;68.92
72202;SHT30;60105;54.956;73.412;2023-03-24T03:43:59;-1.32;68.72
72202;SHT30;60105;54.956;73.412;2023-03-24T03:47:01;-1.03;67.90
72202;SHT30;60105;54.956;73.412;2023-03-24T03:50:14;-0.84;67.20
72202;SHT30;60105;54.956;73.412;2023-03-24T03:53:18;-0.80;66.81
72202;SHT30;60105;54.956;73.412;2023-03-24T03:56:48;-0.74;66.51
72202;SHT30;60105;54.956;73.412;2023-03-24T04:00:00;-0.57;66.27
72202;SHT30;60105;54.956;73.412;2023-03-24T04:03:31;-0.53;66.21
72202;SHT30;60105;54.956;73.412;2023-03-24T04:20:46;0.10;63.90
72202;SHT30;60105;54.956;73.412;2023-03-24T04:23:57;0.10;63.57
72202;SHT30;60105;54.956;73.412;2023-03-24T04:27:24;0.23;63.68
72202;SHT30;60105;54.956;73.412;2023-03-24T04:30:53;0.22;63.71
72202;SHT30;60105;54.956;73.412;2023-03-24T04:34:02;0.37;63.50
72202;SHT30;60105;54.956;73.412;2023-03-24T04:37:22;0.50;63.19
72202;SHT30;60105;54.956;73.412;2023-03-24T04:40:36;0.71;62.82
72202;SHT30;60105;54.956;73.412;2023-03-24T04:43:43;0.77;62.40
72202;SHT30;60105;54.956;73.412;2023-03-24T04:46:45;0.84;62.59
72202;SHT30;60105;54.956;73.412;2023-03-24T04:49:50;0.95;62.60
72202;SHT30;60105;54.956;73.412;2023-03-24T04:53:04;1.08;61.76
72202;SHT30;60105;54.956;73.412;2023-03-24T04:56:49;1.11;61.93
72202;SHT30;60105;54.956;73.412;2023-03-24T04:59:57;1.28;61.70
72202;SHT30;60105;54.956;73.412;2023-03-24T05:02:58;1.28;61.48
72202;SHT30;60105;54.956;73.412;2023-03-24T05:06:01;1.38;61.74
72202;SHT30;60105;54.956;73.412;2023-03-24T05:09:05;1.45;61.59
72202;SHT30;60105;54.956;73.412;2023-03-24T05:12:07;1.73;61.52
72202;SHT30;60105;54.956;73.412;2023-03-24T05:15:32;1.84;61.22
72202;SHT30;60105;54.956;73.412;2023-03-24T05:18:54;1.97;60.73
72202;SHT30;60105;54.956;73.412;2023-03-24T05:21:55;2.11;60.26
72202;SHT30;60105;54.956;73.412;2023-03-24T05:24:57;2.26;59.95
72202;SHT30;60105;54.956;73.412;2023-03-24T05:28:04;2.41;59.48
72202;SHT30;60105;54.956;73.412;2023-03-24T05:31:47;2.45;59.80
72202;SHT30;60105;54.956;73.412;2023-03-24T05:34:54;2.57;59.59
72202;SHT30;60105;54.956;73.412;2023-03-24T05:38:10;2.63;58.97
72202;SHT30;60105;54.956;73.412;2023-03-24T05:41:47;2.67;59.57
72202;SHT30;60105;54.956;73.412;2023-03-24T05:44:49;2.72;59.53
72202;SHT30;60105;54.956;73.412;2023-03-24T05:48:08;2.70;58.87
72202;SHT30;60105;54.956;73.412;2023-03-24T05:51:57;2.79;58.92
72202;SHT30;60105;54.956;73.412;2023-03-24T05:54:58;2.73;58.59
72202;SHT30;60105;54.956;73.412;2023-03-24T05:58:02;2.90;59.07
72202;SHT30;60105;54.956;73.412;2023-03-24T06:01:12;3.11;58.42
72202;SHT30;60105;54.956;73.412;2023-03-24T06:04:22;3.17;58.12
72202;SHT30;60105;54.956;73.412;2023-03-24T06:07:27;3.15;57.43
72202;SHT30;60105;54.956;73.412;2023-03-24T06:10:31;3.24;57.13
72202;SHT30;60105;54.956;73.412;2023-03-24T06:13:34;3.25;57.23
72202;SHT30;60105;54.956;73.412;2023-03-24T06:16:36;3.07;57.14
72202;SHT30;60105;54.956;73.412;2023-03-24T06:19:41;3.10;56.86
72202;SHT30;60105;54.956;73.412;2023-03-24T06:23:01;3.14;57.11
72202;SHT30;60105;54.956;73.412;2023-03-24T06:26:15;3.28;56.64
72202;SHT30;60105;54.956;73.412;2023-03-24T06:29:29;3.28;55.81
72202;SHT30;60105;54.956;73.412;2023-03-24T06:32:31;3.39;56.07
72202;SHT30;60105;54.956;73.412;2023-03-24T06:35:34;3.45;55.27
72202;SHT30;60105;54.956;73.412;2023-03-24T06:39:22;3.52;55.09
72202;SHT30;60105;54.956;73.412;2023-03-24T06:42:25;3.61;55.25
72202;SHT30;60105;54.956;73.412;2023-03-24T06:45:27;3.61;54.89
72202;SHT30;60105;54.956;73.412;2023-03-24T06:48:29;3.71;54.96
72202;SHT30;60105;54.956;73.412;2023-03-24T06:51:37;3.87;53.58
72202;SHT30;60105;54.956;73.412;2023-03-24T06:54:38;3.90;53.87
72202;SHT30;60105;54.956;73.412;2023-03-24T06:57:39;4.06;54.17
72202;SHT30;60105;54.956;73.412;2023-03-24T07:01:04;4.22;53.72
72202;SHT30;60105;54.956;73.412;2023-03-24T07:04:22;4.25;53.60
72202;SHT30;60105;54.956;73.412;2023-03-24T07:07:32;4.34;53.82
72202;SHT30;60105;54.956;73.412;2023-03-24T07:10:56;4.44;52.76
72202;SHT30;60105;54.956;73.412;2023-03-24T07:14:22;4.42;50.99
72202;SHT30;60105;54.956;73.412;2023-03-24T07:17:27;4.24;52.11
72202;SHT30;60105;54.956;73.412;2023-03-24T07:20:51;4.29;50.78
72202;SHT30;60105;54.956;73.412;2023-03-24T07:24:22;4.31;52.13
72202;SHT30;60105;54.956;73.412;2023-03-24T07:27:33;4.36;50.31
72202;SHT30;60105;54.956;73.412;2023-03-24T07:30:35;4.21;51.22
72202;SHT30;60105;54.956;73.412;2023-03-24T07:33:36;4.24;50.67
72202;SHT30;60105;54.956;73.412;2023-03-24T07:36:41;4.33;50.97
72202;SHT30;60105;54.956;73.412;2023-03-24T07:39:47;4.64;50.68
72202;SHT30;60105;54.956;73.412;2023-03-24T07:42:49;4.65;49.38
72202;SHT30;60105;54.956;73.412;2023-03-24T07:46:09;4.61;50.83
72202;SHT30;60105;54.956;73.412;2023-03-24T07:49:22;4.79;49.82
72202;SHT30;60105;54.956;73.412;2023-03-24T07:52:39;4.97;50.53
72202;SHT30;60105;54.956;73.412;2023-03-24T07:55:42;4.81;50.10
72202;SHT30;60105;54.956;73.412;2023-03-24T07:58:51;4.76;49.20
72202;SHT30;60105;54.956;73.412;2023-03-24T08:02:16;4.96;51.89
72202;SHT30;60105;54.956;73.412;2023-03-24T08:05:43;4.99;49.69
72202;SHT30;60105;54.956;73.412;2023-03-24T08:09:22;5.02;50.32
72202;SHT30;60105;54.956;73.412;2023-03-24T08:12:24;4.95;48.67
72202;SHT30;60105;54.956;73.412;2023-03-24T08:15:27;4.83;49.75
72202;SHT30;60105;54.956;73.412;2023-03-24T08:18:28;4.92;49.68
72202;SHT30;60105;54.956;73.412;2023-03-24T08:21:31;5.03;48.83
72202;SHT30;60105;54.956;73.412;2023-03-24T08:24:34;5.08;49.27
72202;SHT30;60105;54.956;73.412;2023-03-24T08:27:37;5.06;49.78
72202;SHT30;60105;54.956;73.412;2023-03-24T08:30:38;5.20;49.20
72202;SHT30;60105;54.956;73.412;2023-03-24T08:34:22;5.26;49.18
72202;SHT30;60105;54.956;73.412;2023-03-24T08:37:34;5.29;49.87
72202;SHT30;60105;54.956;73.412;2023-03-24T08:40:38;5.40;48.48
72202;SHT30;60105;54.956;73.412;2023-03-24T08:44:22;5.23;48.81
72202;SHT30;60105;54.956;73.412;2023-03-24T08:47:23;5.29;48.06
72202;SHT30;60105;54.956;73.412;2023-03-24T08:50:28;5.61;48.73
72202;SHT30;60105;54.956;73.412;2023-03-24T08:53:33;5.77;47.12
72202;SHT30;60105;54.956;73.412;2023-03-24T08:56:39;5.57;47.29
72202;SHT30;60105;54.956;73.412;2023-03-24T08:59:40;5.48;46.96
72202;SHT30;60105;54.956;73.412;2023-03-24T09:02:44;5.48;47.51
72202;SHT30;60105;54.956;73.412;2023-03-24T09:05:57;5.67;48.08
72202;SHT30;60105;54.956;73.412;2023-03-24T09:09:22;5.64;46.79
72202;SHT30;60105;54.956;73.412;2023-03-24T09:12:23;5.57;47.40
72202;SHT30;60105;54.956;73.412;2023-03-24T09:15:25;5.60;47.10
72202;SHT30;60105;54.956;73.412;2023-03-24T09:18:27;5.75;46.78
72202;SHT30;60105;54.956;73.412;2023-03-24T09:21:29;5.68;47.04
72202;SHT30;60105;54.956;73.412;2023-03-24T09:24:35;5.65;47.63
72202;SHT30;60105;54.956;73.412;2023-03-24T09:27:41;5.69;47.26
72202;SHT30;60105;54.956;73.412;2023-03-24T09:30:43;5.68;47.14
72202;SHT30;60105;54.956;73.412;2023-03-24T09:34:23;5.64;48.33
72202;SHT30;60105;54.956;73.412;2023-03-24T09:37:28;5.75;47.24
72202;SHT30;60105;54.956;73.412;2023-03-24T09:40:36;5.65;47.70
72202;SHT30;60105;54.956;73.412;2023-03-24T09:46:53;5.74;46.99
72202;SHT30;60105;54.956;73.412;2023-03-24T09:50:21;5.99;47.35
72202;SHT30;60105;54.956;73.412;2023-03-24T09:56:35;5.85;47.21
72202;SHT30;60105;54.956;73.412;2023-03-24T09:59:38;5.94;48.41
72202;SHT30;60105;54.956;73.412;2023-03-24T10:02:40;5.98;48.58
72202;SHT30;60105;54.956;73.412;2023-03-24T10:06:14;5.88;48.09
72202;SHT30;60105;54.956;73.412;2023-03-24T10:09:25;6.02;50.23
72202;SHT30;60105;54.956;73.412;2023-03-24T10:13:08;6.12;49.76
72202;SHT30;60105;54.956;73.412;2023-03-24T10:23:02;6.02;50.95
72202;SHT30;60105;54.956;73.412;2023-03-24T10:29:25;6.06;51.02
72202;SHT30;60105;54.956;73.412;2023-03-24T10:32:31;6.08;51.49
72202;SHT30;60105;54.956;73.412;2023-03-24T10:35:37;5.91;52.13
72202;SHT30;60105;54.956;73.412;2023-03-24T10:39:22;5.98;51.95
72202;SHT30;60105;54.956;73.412;2023-03-24T10:42:29;6.03;52.62
72202;SHT30;60105;54.956;73.412;2023-03-24T10:45:32;6.03;52.94
72202;SHT30;60105;54.956;73.412;2023-03-24T10:48:46;6.16;52.62
72202;SHT30;60105;54.956;73.412;2023-03-24T10:51:52;6.02;52.61
72202;SHT30;60105;54.956;73.412;2023-03-24T10:55:01;6.13;53.45
72202;SHT30;60105;54.956;73.412;2023-03-24T10:58:14;6.18;53.22
72202;SHT30;60105;54.956;73.412;2023-03-24T11:01:26;6.25;53.23
72202;SHT30;60105;54.956;73.412;2023-03-24T11:04:30;6.06;53.93
72202;SHT30;60105;54.956;73.412;2023-03-24T11:07:34;6.19;54.00
72202;SHT30;60105;54.956;73.412;2023-03-24T11:10:43;6.16;54.06
72202;SHT30;60105;54.956;73.412;2023-03-24T11:14:25;6.16;54.19
72202;SHT30;60105;54.956;73.412;2023-03-24T11:17:27;6.19;54.23
72202;SHT30;60105;54.956;73.412;2023-03-24T11:20:40;6.19;54.59
72202;SHT30;60105;54.956;73.412;2023-03-24T11:24:22;6.19;54.57
72202;SHT30;60105;54.956;73.412;2023-03-24T11:27:24;6.25;54.92
72202;SHT30;60105;54.956;73.412;2023-03-24T11:30:33;6.33;54.99
72202;SHT30;60105;54.956;73.412;2023-03-24T11:34:27;6.16;55.14
72202;SHT30;60105;54.956;73.412;2023-03-24T11:37:34;6.23;54.60
72202;SHT30;60105;54.956;73.412;2023-03-24T11:40:51;6.08;55.48
72202;SHT30;60105;54.956;73.412;2023-03-24T11:44:24;5.79;55.73
72202;SHT30;60105;54.956;73.412;2023-03-24T11:47:37;5.62;56.49
72202;SHT30;60105;54.956;73.412;2023-03-24T11:50:39;5.54;56.51
72202;SHT30;60105;54.956;73.412;2023-03-24T11:54:27;5.57;56.82
72202;SHT30;60105;54.956;73.412;2023-03-24T12:04:34;5.31;57.16
72202;SHT30;60105;54.956;73.412;2023-03-24T12:21:41;5.20;57.51
72202;SHT30;60105;54.956;73.412;2023-03-24T12:35:49;5.00;58.18
72202;SHT30;60105;54.956;73.412;2023-03-24T12:39:29;4.93;58.07
72202;SHT30;60105;54.956;73.412;2023-03-24T12:42:45;4.88;58.39
72202;SHT30;60105;54.956;73.412;2023-03-24T12:45:50;4.81;59.01
72202;SHT30;60105;54.956;73.412;2023-03-24T12:55:34;4.68;59.52
72202;SHT30;60105;54.956;73.412;2023-03-24T12:58:49;4.51;60.14
72202;SHT30;60105;54.956;73.412;2023-03-24T13:01:57;4.47;60.67
72202;SHT30;60105;54.956;73.412;2023-03-24T13:05:02;4.41;61.14
72202;SHT30;60105;54.956;73.412;2023-03-24T13:08:13;4.36;60.89
72202;SHT30;60105;54.956;73.412;2023-03-24T13:11:17;4.34;61.15
72202;SHT30;60105;54.956;73.412;2023-03-24T13:14:24;4.22;61.65
72202;SHT30;60105;54.956;73.412;2023-03-24T13:20:53;4.27;61.90
72202;SHT30;60105;54.956;73.412;2023-03-24T13:24:22;4.20;62.11
72202;SHT30;60105;54.956;73.412;2023-03-24T13:27:31;4.09;62.48
72202;SHT30;60105;54.956;73.412;2023-03-24T13:30:37;4.00;63.15
72202;SHT30;60105;54.956;73.412;2023-03-24T13:34:32;3.92;63.58
72202;SHT30;60105;54.956;73.412;2023-03-24T13:37:39;3.92;63.71
72202;SHT30;60105;54.956;73.412;2023-03-24T13:40:50;3.90;63.97
72202;SHT30;60105;54.956;73.412;2023-03-24T13:44:25;3.85;64.06
72202;SHT30;60105;54.956;73.412;2023-03-24T13:47:49;3.85;64.23
72202;SHT30;60105;54.956;73.412;2023-03-24T13:51:02;3.83;64.42
72202;SHT30;60105;54.956;73.412;2023-03-24T13:54:23;3.78;64.62
72202;SHT30;60105;54.956;73.412;2023-03-24T13:57:26;3.79;64.55
72202;SHT30;60105;54.956;73.412;2023-03-24T14:00:28;3.82;64.74
72202;SHT30;60105;54.956;73.412;2023-03-24T14:03:32;3.75;64.79
72202;SHT30;60105;54.956;73.412;2023-03-24T14:06:46;3.63;65.28
72202;SHT30;60105;54.956;73.412;2023-03-24T14:13:35;3.68;65.82
72202;SHT30;60105;54.956;73.412;2023-03-24T14:22:58;3.58;66.25
72202;SHT30;60105;54.956;73.412;2023-03-24T14:26:00;3.56;66.31
72202;SHT30;60105;54.956;73.412;2023-03-24T14:29:01;3.52;66.59
72202;SHT30;60105;54.956;73.412;2023-03-24T14:32:16;3.51;66.60
72202;SHT30;60105;54.956;73.412;2023-03-24T14:38:40;3.50;66.75
72202;SHT30;60105;54.956;73.412;2023-03-24T14:41:53;3.46;66.87
72202;SHT30;60105;54.956;73.412;2023-03-24T14:45:00;3.46;66.86
72202;SHT30;60105;54.956;73.412;2023-03-24T14:48:40;3.39;67.31
72202;SHT30;60105;54.956;73.412;2023-03-24T14:51:51;3.39;67.53
72202;SHT30;60105;54.956;73.412;2023-03-24T14:58:35;3.36;67.73
72202;SHT30;60105;54.956;73.412;2023-03-24T15:01:41;3.31;68.02
72202;SHT30;60105;54.956;73.412;2023-03-24T15:08:16;3.18;68.67
72202;SHT30;60105;54.956;73.412;2023-03-24T15:11:31;3.17;68.80
72202;SHT30;60105;54.956;73.412;2023-03-24T15:14:34;3.17;68.81
72202;SHT30;60105;54.956;73.412;2023-03-24T15:17:37;3.21;68.68
72202;SHT30;60105;54.956;73.412;2023-03-24T15:20:38;3.18;68.53
72202;SHT30;60105;54.956;73.412;2023-03-24T15:27:25;3.17;68.89
72202;SHT30;60105;54.956;73.412;2023-03-24T15:30:28;3.11;69.07
72202;SHT30;60105;54.956;73.412;2023-03-24T15:33:40;3.10;68.99
72202;SHT30;60105;54.956;73.412;2023-03-24T15:36:55;3.11;69.09
72202;SHT30;60105;54.956;73.412;2023-03-24T15:39:57;3.20;69.28
72202;SHT30;60105;54.956;73.412;2023-03-24T15:43:13;3.15;69.14
72202;SHT30;60105;54.956;73.412;2023-03-24T15:46:29;3.07;69.17
72202;SHT30;60105;54.956;73.412;2023-03-24T15:49:51;3.04;69.46
72202;SHT30;60105;54.956;73.412;2023-03-24T15:56:31;3.08;69.75
72202;SHT30;60105;54.956;73.412;2023-03-24T15:59:45;3.03;69.79
72202;SHT30;60105;54.956;73.412;2023-03-24T16:02:49;3.01;70.13
72202;SHT30;60105;54.956;73.412;2023-03-24T16:05:54;2.96;70.33
72202;SHT30;60105;54.956;73.412;2023-03-24T16:09:23;2.97;70.52
72202;SHT30;60105;54.956;73.412;2023-03-24T16:12:37;2.84;70.83
72202;SHT30;60105;54.956;73.412;2023-03-24T16:15:40;2.82;71.20
72202;SHT30;60105;54.956;73.412;2023-03-24T16:19:22;2.92;71.27
72202;SHT30;60105;54.956;73.412;2023-03-24T16:22:24;2.99;70.80
72202;SHT30;60105;54.956;73.412;2023-03-24T16:25:25;2.96;70.97
72202;SHT30;60105;54.956;73.412;2023-03-24T16:28:26;2.92;71.03
72202;SHT30;60105;54.956;73.412;2023-03-24T16:31:30;2.92;70.95
72202;SHT30;60105;54.956;73.412;2023-03-24T16:34:33;2.89;71.35
72202;SHT30;60105;54.956;73.412;2023-03-24T16:37:40;2.90;71.26
72202;SHT30;60105;54.956;73.412;2023-03-24T16:40:48;2.87;71.42
72202;SHT30;60105;54.956;73.412;2023-03-24T16:44:22;2.83;71.46
72202;SHT30;60105;54.956;73.412;2023-03-24T16:47:24;2.87;71.36
72202;SHT30;60105;54.956;73.412;2023-03-24T16:50:34;2.92;71.32
72202;SHT30;60105;54.956;73.412;2023-03-24T16:54:22;2.94;71.12
72202;SHT30;60105;54.956;73.412;2023-03-24T16:57:23;2.86;71.41
72202;SHT30;60105;54.956;73.412;2023-03-24T17:00:24;2.92;71.51
72202;SHT30;60105;54.956;73.412;2023-03-24T17:03:27;2.82;71.58
72202;SHT30;60105;54.956;73.412;2023-03-24T17:06:31;2.77;71.96
72202;SHT30;60105;54.956;73.412;2023-03-24T17:09:33;2.72;72.21
72202;SHT30;60105;54.956;73.412;2023-03-24T17:12:35;2.73;72.10
72202;SHT30;60105;54.956;73.412;2023-03-24T17:15:36;2.70;72.11
72202;SHT30;60105;54.956;73.412;2023-03-24T17:19:22;2.57;72.43
72202;SHT30;60105;54.956;73.412;2023-03-24T17:22:24;2.49;73.06
72202;SHT30;60105;54.956;73.412;2023-03-24T17:25:25;2.57;73.02
72202;SHT30;60105;54.956;73.412;2023-03-24T17:28:51;2.64;72.79
72202;SHT30;60105;54.956;73.412;2023-03-24T17:31:53;2.63;72.67
72202;SHT30;60105;54.956;73.412;2023-03-24T17:34:54;2.67;72.57
72202;SHT30;60105;54.956;73.412;2023-03-24T17:37:55;2.63;72.79
72202;SHT30;60105;54.956;73.412;2023-03-24T17:41:02;2.59;73.03
72202;SHT30;60105;54.956;73.412;2023-03-24T17:44:22;2.55;73.19
72202;SHT30;60105;54.956;73.412;2023-03-24T17:47:23;2.56;73.04
72202;SHT30;60105;54.956;73.412;2023-03-24T17:50:24;2.45;73.46
72202;SHT30;60105;54.956;73.412;2023-03-24T17:53:26;2.36;73.77
72202;SHT30;60105;54.956;73.412;2023-03-24T17:56:27;2.26;74.18
72202;SHT30;60105;54.956;73.412;2023-03-24T17:59:38;2.28;74.24
72202;SHT30;60105;54.956;73.412;2023-03-24T18:02:50;2.26;74.35
72202;SHT30;60105;54.956;73.412;2023-03-24T18:05:52;2.29;74.17
72202;SHT30;60105;54.956;73.412;2023-03-24T18:09:22;2.28;74.06
72202;SHT30;60105;54.956;73.412;2023-03-24T18:12:24;2.15;74.38
72202;SHT30;60105;54.956;73.412;2023-03-24T18:15:40;2.12;74.46
72202;SHT30;60105;54.956;73.412;2023-03-24T18:19:22;2.18;74.29
72202;SHT30;60105;54.956;73.412;2023-03-24T18:22:23;2.10;74.66
72202;SHT30;60105;54.956;73.412;2023-03-24T18:25:24;2.05;74.90
72202;SHT30;60105;54.956;73.412;2023-03-24T18:28:37;2.03;75.19
72202;SHT30;60105;54.956;73.412;2023-03-24T18:31:38;2.00;75.14
72202;SHT30;60105;54.956;73.412;2023-03-24T18:34:40;1.98;75.21
72202;SHT30;60105;54.956;73.412;2023-03-24T18:37:54;1.97;75.36
72202;SHT30;60105;54.956;73.412;2023-03-24T18:41:00;1.97;75.37
72202;SHT30;60105;54.956;73.412;2023-03-24T18:44:21;1.95;75.42
72202;SHT30;60105;54.956;73.412;2023-03-24T18:47:23;1.98;75.58
72202;SHT30;60105;54.956;73.412;2023-03-24T18:50:24;1.95;75.87
72202;SHT30;60105;54.956;73.412;2023-03-24T18:53:26;1.91;76.22
72202;SHT30;60105;54.956;73.412;2023-03-24T18:56:27;1.91;76.20
72202;SHT30;60105;54.956;73.412;2023-03-24T18:59:34;1.87;76.41
72202;SHT30;60105;54.956;73.412;2023-03-24T19:02:35;1.85;76.82
72202;SHT30;60105;54.956;73.412;2023-03-24T19:05:36;1.84;77.07
72202;SHT30;60105;54.956;73.412;2023-03-24T19:09:22;1.80;77.32
72202;SHT30;60105;54.956;73.412;2023-03-24T19:12:33;1.85;77.39
72202;SHT30;60105;54.956;73.412;2023-03-24T19:15:45;1.80;77.45
72202;SHT30;60105;54.956;73.412;2023-03-24T19:19:22;1.81;77.40
72202;SHT30;60105;54.956;73.412;2023-03-24T19:22:24;1.78;77.24
72202;SHT30;60105;54.956;73.412;2023-03-24T19:25:26;1.78;77.24
72202;SHT30;60105;54.956;73.412;2023-03-24T19:28:30;1.83;77.21
72202;SHT30;60105;54.956;73.412;2023-03-24T19:31:42;1.77;77.05
72202;SHT30;60105;54.956;73.412;2023-03-24T19:34:43;1.66;77.67
72202;SHT30;60105;54.956;73.412;2023-03-24T19:37:55;1.64;77.84
72202;SHT30;60105;54.956;73.412;2023-03-24T19:40:57;1.66;77.96
72202;SHT30;60105;54.956;73.412;2023-03-24T19:44:21;1.66;77.93
72202;SHT30;60105;54.956;73.412;2023-03-24T19:47:33;1.54;78.14
72202;SHT30;60105;54.956;73.412;2023-03-24T19:50:34;1.47;78.92
72202;SHT30;60105;54.956;73.412;2023-03-24T19:53:36;1.49;78.85
72202;SHT30;60105;54.956;73.412;2023-03-24T19:56:38;1.49;78.74
72202;SHT30;60105;54.956;73.412;2023-03-24T19:59:39;1.45;78.97
72202;SHT30;60105;54.956;73.412;2023-03-24T20:02:40;1.45;79.01
72202;SHT30;60105;54.956;73.412;2023-03-24T20:05:42;1.43;79.36
72202;SHT30;60105;54.956;73.412;2023-03-24T20:09:22;1.38;79.48
72202;SHT30;60105;54.956;73.412;2023-03-24T20:12:23;1.45;79.42
72202;SHT30;60105;54.956;73.412;2023-03-24T20:15:26;1.45;79.29
72202;SHT30;60105;54.956;73.412;2023-03-24T20:18:27;1.42;79.49
72202;SHT30;60105;54.956;73.412;2023-03-24T20:21:29;1.42;79.54
72202;SHT30;60105;54.956;73.412;2023-03-24T20:24:30;1.39;79.60
72202;SHT30;60105;54.956;73.412;2023-03-24T20:27:32;1.39;79.77
72202;SHT30;60105;54.956;73.412;2023-03-24T20:30:33;1.42;79.64
72202;SHT30;60105;54.956;73.412;2023-03-24T20:34:22;1.40;79.70
72202;SHT30;60105;54.956;73.412;2023-03-24T20:37:27;1.39;79.60
72202;SHT30;60105;54.956;73.412;2023-03-24T20:40:34;1.42;79.57
72202;SHT30;60105;54.956;73.412;2023-03-24T20:43:36;1.39;79.60
72202;SHT30;60105;54.956;73.412;2023-03-24T20:46:39;1.40;79.49
72202;SHT30;60105;54.956;73.412;2023-03-24T20:49:50;1.31;79.61
72202;SHT30;60105;54.956;73.412;2023-03-24T20:52:53;1.36;79.98
72202;SHT30;60105;54.956;73.412;2023-03-24T20:56:00;1.38;79.81
72202;SHT30;60105;54.956;73.412;2023-03-24T20:59:07;1.40;79.85
72202;SHT30;60105;54.956;73.412;2023-03-24T21:02:08;1.32;80.04
72202;SHT30;60105;54.956;73.412;2023-03-24T21:05:10;1.28;80.39
72202;SHT30;60105;54.956;73.412;2023-03-24T21:08:16;1.29;80.56
72202;SHT30;60105;54.956;73.412;2023-03-24T21:11:18;1.25;80.48
72202;SHT30;60105;54.956;73.412;2023-03-24T21:14:21;1.28;80.48
72202;SHT30;60105;54.956;73.412;2023-03-24T21:17:23;1.16;80.88
72202;SHT30;60105;54.956;73.412;2023-03-24T21:20:31;1.15;80.81
72202;SHT30;60105;54.956;73.412;2023-03-24T21:23:33;1.15;80.90
72202;SHT30;60105;54.956;73.412;2023-03-24T21:26:38;1.18;80.93
72202;SHT30;60105;54.956;73.412;2023-03-24T21:29:50;1.16;80.79
72202;SHT30;60105;54.956;73.412;2023-03-24T21:32:53;1.16;80.79
72202;SHT30;60105;54.956;73.412;2023-03-24T21:35:54;1.12;80.79
72202;SHT30;60105;54.956;73.412;2023-03-24T21:39:22;1.06;81.16
72202;SHT30;60105;54.956;73.412;2023-03-24T21:42:23;1.12;80.95
72202;SHT30;60105;54.956;73.412;2023-03-24T21:45:25;1.09;80.79
72202;SHT30;60105;54.956;73.412;2023-03-24T21:48:27;1.09;80.47
72202;SHT30;60105;54.956;73.412;2023-03-24T21:51:31;1.09;80.40
72202;SHT30;60105;54.956;73.412;2023-03-24T21:54:37;1.08;80.19
72202;SHT30;60105;54.956;73.412;2023-03-24T21:57:38;1.05;80.28
72202;SHT30;60105;54.956;73.412;2023-03-24T22:00:50;0.98;80.13
72202;SHT30;60105;54.956;73.412;2023-03-24T22:04:22;0.91;80.64
72202;SHT30;60105;54.956;73.412;2023-03-24T22:07:24;0.88;80.46
72202;SHT30;60105;54.956;73.412;2023-03-24T22:10:25;0.83;80.70
72202;SHT30;60105;54.956;73.412;2023-03-24T22:13:31;0.83;80.39
72202;SHT30;60105;54.956;73.412;2023-03-24T22:16:33;0.80;80.67
72202;SHT30;60105;54.956;73.412;2023-03-24T22:19:34;0.84;80.57
72202;SHT30;60105;54.956;73.412;2023-03-24T22:22:45;0.80;80.44
72202;SHT30;60105;54.956;73.412;2023-03-24T22:25:49;0.73;80.76
72202;SHT30;60105;54.956;73.412;2023-03-24T22:28:52;0.73;80.84